createdAt,value
2023-04-28T00:00:02.456Z,21.83
2023-04-28T00:01:02.481Z,21.83
2023-04-28T00:02:02.584Z,21.82
2023-04-28T00:03:02.813Z,21.82
2023-04-28T00:04:02.886Z,21.81
2023-04-28T00:05:02.875Z,21.82
2023-04-28T00:06:02.804Z,21.82
2023-04-28T00:07:02.862Z,21.82
2023-04-28T00:08:02.946Z,21.82
2023-04-28T00:09:02.993Z,21.81
2023-04-28T00:10:03.065Z,21.82
2023-04-28T00:11:03.132Z,21.81
2023-04-28T00:12:03.193Z,21.80
2023-04-28T00:13:03.256Z,21.81
2023-04-28T00:14:03.338Z,21.80
2023-04-28T00:15:03.401Z,21.80
2023-04-28T00:16:03.431Z,21.80
2023-04-28T00:17:03.553Z,21.81
2023-04-28T00:18:03.641Z,21.81
2023-04-28T00:19:03.666Z,21.81
2023-04-28T00:20:03.741Z,21.81
2023-04-28T00:21:03.792Z,21.81
2023-04-28T00:22:03.859Z,21.81
2023-04-28T00:23:03.891Z,21.81
2023-04-28T00:24:03.955Z,21.81
2023-04-28T00:25:04.012Z,21.80
2023-04-28T00:26:04.083Z,21.80
2023-04-28T00:27:04.161Z,21.80
2023-04-28T00:28:04.255Z,21.79
2023-04-28T00:29:04.281Z,21.79
2023-04-28T00:30:04.329Z,21.80
2023-04-28T00:31:04.390Z,21.81
2023-04-28T00:32:04.551Z,21.81
2023-04-28T00:33:04.559Z,21.79
2023-04-28T00:34:04.607Z,21.80
2023-04-28T00:35:04.615Z,21.80
2023-04-28T00:36:04.705Z,21.80
2023-04-28T00:37:04.757Z,21.80
2023-04-28T00:38:04.816Z,21.80
2023-04-28T00:39:04.896Z,21.80
2023-04-28T00:40:04.928Z,21.80
2023-04-28T00:41:04.995Z,21.79
2023-04-28T00:42:05.041Z,21.79
2023-04-28T00:43:05.129Z,21.80
2023-04-28T00:44:05.146Z,21.80
2023-04-28T00:45:05.254Z,21.79
2023-04-28T00:46:05.314Z,21.79
2023-04-28T00:47:05.341Z,21.79
2023-04-28T00:48:05.442Z,21.79
2023-04-28T00:49:05.483Z,21.80
2023-04-28T00:50:05.505Z,21.79
2023-04-28T00:51:05.567Z,21.79
2023-04-28T00:52:05.631Z,21.78
2023-04-28T00:53:05.721Z,21.78
2023-04-28T00:54:05.764Z,21.78
2023-04-28T00:55:05.846Z,21.78
2023-04-28T00:56:05.885Z,21.79
2023-04-28T00:57:05.970Z,21.78
2023-04-28T00:58:06.025Z,21.78
2023-04-28T00:59:06.093Z,21.78
2023-04-28T01:00:06.164Z,21.78
2023-04-28T01:01:06.290Z,21.78
2023-04-28T01:02:06.319Z,21.79
2023-04-28T01:03:06.521Z,21.78
2023-04-28T01:04:06.594Z,21.78
2023-04-28T01:05:06.447Z,21.80
2023-04-28T01:06:06.535Z,21.80
2023-04-28T01:07:06.589Z,21.79
2023-04-28T01:08:06.630Z,21.79
2023-04-28T01:09:06.705Z,21.79
2023-04-28T01:10:06.770Z,21.79
2023-04-28T01:11:06.781Z,21.79
2023-04-28T01:12:06.862Z,21.79
2023-04-28T01:13:06.910Z,21.78
2023-04-28T01:14:06.970Z,21.78
2023-04-28T01:15:07.027Z,21.78
2023-04-28T01:16:07.127Z,21.77
2023-04-28T01:17:07.171Z,21.78
2023-04-28T01:18:07.343Z,21.78
2023-04-28T01:19:07.293Z,21.79
2023-04-28T01:20:07.336Z,21.78
2023-04-28T01:21:07.409Z,21.78
2023-04-28T01:22:07.441Z,21.77
2023-04-28T01:23:07.470Z,21.77
2023-04-28T01:24:07.565Z,21.77
2023-04-28T01:25:07.628Z,21.78
2023-04-28T01:26:07.669Z,21.77
2023-04-28T01:27:07.761Z,21.78
2023-04-28T01:28:07.762Z,21.78
2023-04-28T01:29:07.828Z,21.78
2023-04-28T01:30:07.905Z,21.77
2023-04-28T01:31:07.952Z,21.77
2023-04-28T01:32:08.031Z,21.77
2023-04-28T01:33:08.150Z,21.76
2023-04-28T01:34:08.149Z,21.76
2023-04-28T01:35:08.189Z,21.77
2023-04-28T01:36:08.244Z,21.76
2023-04-28T01:37:08.340Z,21.76
2023-04-28T01:38:08.382Z,21.77
2023-04-28T01:39:08.421Z,21.77
2023-04-28T01:40:08.460Z,21.77
2023-04-28T01:41:08.575Z,21.76
2023-04-28T01:42:08.624Z,21.76
2023-04-28T01:43:08.676Z,21.77
2023-04-28T01:44:08.734Z,21.77
2023-04-28T01:45:08.785Z,21.76
2023-04-28T01:46:08.876Z,21.76
2023-04-28T01:47:08.922Z,21.76
2023-04-28T01:48:08.999Z,21.75
2023-04-28T01:49:08.995Z,21.75
2023-04-28T01:50:09.075Z,21.75
2023-04-28T01:51:09.159Z,21.75
2023-04-28T01:52:09.206Z,21.76
2023-04-28T01:53:09.269Z,21.75
2023-04-28T01:54:09.334Z,21.76
2023-04-28T01:55:09.409Z,21.76
2023-04-28T01:56:09.469Z,21.76
2023-04-28T01:57:09.519Z,21.76
2023-04-28T01:58:09.543Z,21.76
2023-04-28T01:59:09.595Z,21.75
2023-04-28T02:00:09.658Z,21.75
2023-04-28T02:01:09.765Z,21.75
2023-04-28T02:02:09.803Z,21.75
2023-04-28T02:03:10.024Z,21.75
2023-04-28T02:04:10.067Z,21.75
2023-04-28T02:05:09.934Z,21.76
2023-04-28T02:06:09.973Z,21.76
2023-04-28T02:07:10.031Z,21.76
2023-04-28T02:08:10.081Z,21.76
2023-04-28T02:09:10.146Z,21.76
2023-04-28T02:10:10.217Z,21.76
2023-04-28T02:11:10.237Z,21.76
2023-04-28T02:12:10.325Z,21.76
2023-04-28T02:13:10.346Z,21.75
2023-04-28T02:14:10.442Z,21.75
2023-04-28T02:15:10.481Z,21.76
2023-04-28T02:16:10.557Z,21.75
2023-04-28T02:17:10.590Z,21.75
2023-04-28T02:18:10.628Z,21.75
2023-04-28T02:19:10.641Z,21.75
2023-04-28T02:20:10.712Z,21.74
2023-04-28T02:21:10.745Z,21.75
2023-04-28T02:22:10.830Z,21.76
2023-04-28T02:23:10.855Z,21.75
2023-04-28T02:24:10.957Z,21.75
2023-04-28T02:25:11.002Z,21.74
2023-04-28T02:26:11.054Z,21.75
2023-04-28T02:27:11.129Z,21.74
2023-04-28T02:28:11.213Z,21.75
2023-04-28T02:29:11.236Z,21.74
2023-04-28T02:30:11.289Z,21.75
2023-04-28T02:31:11.405Z,21.74
2023-04-28T02:32:11.377Z,21.74
2023-04-28T02:33:11.541Z,21.74
2023-04-28T02:34:11.490Z,21.75
2023-04-28T02:35:11.511Z,21.74
2023-04-28T02:36:11.566Z,21.75
2023-04-28T02:37:11.609Z,21.74
2023-04-28T02:38:11.697Z,21.73
2023-04-28T02:39:11.731Z,21.74
2023-04-28T02:40:11.815Z,21.74
2023-04-28T02:41:11.848Z,21.73
2023-04-28T02:42:11.909Z,21.73
2023-04-28T02:43:11.947Z,21.73
2023-04-28T02:44:12.028Z,21.73
2023-04-28T02:45:12.094Z,21.74
2023-04-28T02:46:12.161Z,21.74
2023-04-28T02:47:12.197Z,21.74
2023-04-28T02:48:12.292Z,21.74
2023-04-28T02:49:12.356Z,21.74
2023-04-28T02:50:12.392Z,21.74
2023-04-28T02:51:12.459Z,21.74
2023-04-28T02:52:12.523Z,21.74
2023-04-28T02:53:12.565Z,21.74
2023-04-28T02:54:12.632Z,21.74
2023-04-28T02:55:12.680Z,21.74
2023-04-28T02:56:12.693Z,21.74
2023-04-28T02:57:12.753Z,21.74
2023-04-28T02:58:12.773Z,21.74
2023-04-28T02:59:12.825Z,21.74
2023-04-28T03:00:12.859Z,21.74
2023-04-28T03:01:12.907Z,21.74
2023-04-28T03:02:12.966Z,21.74
2023-04-28T03:03:13.254Z,21.74
2023-04-28T03:04:13.216Z,21.74
2023-04-28T03:05:13.144Z,21.74
2023-04-28T03:06:13.173Z,21.74
2023-04-28T03:07:13.246Z,21.73
2023-04-28T03:08:13.296Z,21.73
2023-04-28T03:09:13.353Z,21.73
2023-04-28T03:10:13.398Z,21.73
2023-04-28T03:11:13.509Z,21.74
2023-04-28T03:12:13.550Z,21.73
2023-04-28T03:13:13.581Z,21.74
2023-04-28T03:14:13.748Z,21.73
2023-04-28T03:15:14.334Z,21.74
2023-04-28T03:16:13.763Z,21.73
2023-04-28T03:17:13.818Z,21.73
2023-04-28T03:18:13.870Z,21.73
2023-04-28T03:19:13.943Z,21.73
2023-04-28T03:20:13.991Z,21.73
2023-04-28T03:21:14.040Z,21.73
2023-04-28T03:22:14.143Z,21.73
2023-04-28T03:23:14.186Z,21.74
2023-04-28T03:24:14.414Z,21.73
2023-04-28T03:25:14.333Z,21.73
2023-04-28T03:26:14.395Z,21.73
2023-04-28T03:27:14.398Z,21.73
2023-04-28T03:28:14.461Z,21.73
2023-04-28T03:29:14.492Z,21.72
2023-04-28T03:30:14.524Z,21.73
2023-04-28T03:31:14.632Z,21.73
2023-04-28T03:32:14.679Z,21.74
2023-04-28T03:33:14.745Z,21.73
2023-04-28T03:34:14.933Z,21.73
2023-04-28T03:35:14.827Z,21.72
2023-04-28T03:36:14.869Z,21.72
2023-04-28T03:37:14.920Z,21.72
2023-04-28T03:38:14.992Z,21.73
2023-04-28T03:39:15.073Z,21.72
2023-04-28T03:40:15.106Z,21.72
2023-04-28T03:41:15.151Z,21.72
2023-04-28T03:42:15.216Z,21.73
2023-04-28T03:43:15.234Z,21.73
2023-04-28T03:44:15.417Z,21.73
2023-04-28T03:45:15.354Z,21.73
2023-04-28T03:46:15.481Z,21.72
2023-04-28T03:47:15.432Z,21.73
2023-04-28T03:48:15.532Z,21.73
2023-04-28T03:49:15.515Z,21.73
2023-04-28T03:50:15.546Z,21.73
2023-04-28T03:51:15.599Z,21.73
2023-04-28T03:52:15.630Z,21.73
2023-04-28T03:53:15.675Z,21.74
2023-04-28T03:54:15.934Z,21.74
2023-04-28T03:55:15.784Z,21.73
2023-04-28T03:56:15.867Z,21.73
2023-04-28T03:57:15.913Z,21.72
2023-04-28T03:58:15.955Z,21.72
2023-04-28T03:59:16.015Z,21.72
2023-04-28T04:00:16.025Z,21.72
2023-04-28T04:01:16.101Z,21.72
2023-04-28T04:02:16.159Z,21.72
2023-04-28T04:03:16.342Z,21.73
2023-04-28T04:04:16.853Z,21.72
2023-04-28T04:05:16.360Z,21.72
2023-04-28T04:06:16.287Z,21.72
2023-04-28T04:07:16.335Z,21.72
2023-04-28T04:08:16.375Z,21.72
2023-04-28T04:09:16.448Z,21.72
2023-04-28T04:10:16.450Z,21.72
2023-04-28T04:11:16.495Z,21.73
2023-04-28T04:12:16.520Z,21.73
2023-04-28T04:13:16.553Z,21.72
2023-04-28T04:14:16.714Z,21.73
2023-04-28T04:15:16.605Z,21.73
2023-04-28T04:16:16.682Z,21.73
2023-04-28T04:17:16.658Z,21.73
2023-04-28T04:18:16.658Z,21.73
2023-04-28T04:19:16.700Z,21.72
2023-04-28T04:20:16.728Z,21.72
2023-04-28T04:21:16.733Z,21.72
2023-04-28T04:22:16.794Z,21.73
2023-04-28T04:23:16.875Z,21.73
2023-04-28T04:24:17.010Z,21.72
2023-04-28T04:25:16.889Z,21.73
2023-04-28T04:26:16.924Z,21.73
2023-04-28T04:27:16.939Z,21.72
2023-04-28T04:28:17.069Z,21.72
2023-04-28T04:29:16.977Z,21.72
2023-04-28T04:30:17.096Z,21.71
2023-04-28T04:31:17.122Z,21.71
2023-04-28T04:32:17.105Z,21.71
2023-04-28T04:33:17.099Z,21.71
2023-04-28T04:34:17.330Z,21.71
2023-04-28T04:35:17.217Z,21.71
2023-04-28T04:36:17.233Z,21.71
2023-04-28T04:37:17.261Z,21.70
2023-04-28T04:38:17.302Z,21.70
2023-04-28T04:39:17.349Z,21.69
2023-04-28T04:40:17.382Z,21.70
2023-04-28T04:41:17.432Z,21.70
2023-04-28T04:43:18.471Z,21.70
2023-04-28T04:44:17.755Z,21.70
2023-04-28T04:45:17.444Z,21.71
2023-04-28T04:46:17.489Z,21.71
2023-04-28T04:47:17.442Z,21.71
2023-04-28T04:48:17.448Z,21.71
2023-04-28T04:49:17.425Z,21.70
2023-04-28T04:50:17.430Z,21.70
2023-04-28T04:51:17.404Z,21.71
2023-04-28T04:52:17.446Z,21.70
2023-04-28T04:53:17.506Z,21.70
2023-04-28T04:54:17.750Z,21.70
2023-04-28T04:55:17.608Z,21.71
2023-04-28T04:56:17.662Z,21.71
2023-04-28T04:57:17.706Z,21.71
2023-04-28T04:58:17.784Z,21.71
2023-04-28T04:59:17.811Z,21.71
2023-04-28T05:00:17.846Z,21.71
2023-04-28T05:01:17.945Z,21.71
2023-04-28T05:02:17.971Z,21.71
2023-04-28T05:03:18.027Z,21.71
2023-04-28T05:04:18.224Z,21.70
2023-04-28T05:05:22.002Z,21.70
2023-04-28T05:06:18.035Z,21.71
2023-04-28T05:07:18.025Z,21.72
2023-04-28T05:08:18.021Z,21.71
2023-04-28T05:09:18.005Z,21.71
2023-04-28T05:10:18.016Z,21.71
2023-04-28T05:11:18.007Z,21.71
2023-04-28T05:12:18.012Z,21.71
2023-04-28T05:13:17.947Z,21.71
2023-04-28T05:14:18.555Z,21.71
2023-04-28T05:15:17.969Z,21.71
2023-04-28T05:16:18.061Z,21.70
2023-04-28T05:17:18.077Z,21.70
2023-04-28T05:18:18.130Z,21.71
2023-04-28T05:19:18.214Z,21.71
2023-04-28T05:20:18.265Z,21.71
2023-04-28T05:21:18.287Z,21.70
2023-04-28T05:22:18.370Z,21.70
2023-04-28T05:23:18.405Z,21.71
2023-04-28T05:24:18.785Z,21.70
2023-04-28T05:25:18.485Z,21.71
2023-04-28T05:26:18.524Z,21.71
2023-04-28T05:27:18.574Z,21.70
2023-04-28T05:28:20.117Z,21.71
2023-04-28T05:29:18.631Z,21.70
2023-04-28T05:30:18.632Z,21.71
2023-04-28T05:31:18.632Z,21.71
2023-04-28T05:32:18.683Z,21.72
2023-04-28T05:33:18.618Z,21.71
2023-04-28T05:34:18.712Z,21.71
2023-04-28T05:35:18.591Z,21.71
2023-04-28T05:36:18.618Z,21.71
2023-04-28T05:37:18.568Z,21.70
2023-04-28T05:38:18.566Z,21.71
2023-04-28T05:39:18.555Z,21.70
2023-04-28T05:40:18.576Z,21.71
2023-04-28T05:41:18.559Z,21.70
2023-04-28T05:42:18.611Z,21.70
2023-04-28T05:43:18.538Z,21.70
2023-04-28T05:44:18.609Z,21.70
2023-04-28T05:45:18.507Z,21.70
2023-04-28T05:46:29.872Z,21.70
2023-04-28T05:47:19.500Z,21.69
2023-04-28T05:48:18.472Z,21.69
2023-04-28T05:49:18.529Z,21.70
2023-04-28T05:50:18.483Z,21.70
2023-04-28T05:51:18.474Z,21.70
2023-04-28T05:52:18.590Z,21.70
2023-04-28T05:53:18.466Z,21.71
2023-04-28T05:54:18.641Z,21.70
2023-04-28T05:55:18.502Z,21.71
2023-04-28T05:56:18.539Z,21.71
2023-04-28T05:57:18.625Z,21.70
2023-04-28T05:58:18.569Z,21.70
2023-04-28T05:59:18.852Z,21.70
2023-04-28T06:00:18.668Z,21.71
2023-04-28T06:01:18.734Z,21.71
2023-04-28T06:02:21.901Z,21.71
2023-04-28T06:03:19.018Z,21.70
2023-04-28T06:04:19.073Z,21.70
2023-04-28T06:05:19.234Z,21.71
2023-04-28T06:06:18.893Z,21.70
2023-04-28T06:07:19.085Z,21.70
2023-04-28T06:08:18.736Z,21.70
2023-04-28T06:09:18.920Z,21.71
2023-04-28T06:10:18.734Z,21.70
2023-04-28T06:11:18.703Z,21.72
2023-04-28T06:12:18.713Z,21.71
2023-04-28T06:13:18.711Z,21.71
2023-04-28T06:14:18.921Z,21.70
2023-04-28T06:15:18.692Z,21.71
2023-04-28T06:16:18.890Z,21.71
2023-04-28T06:17:18.687Z,21.70
2023-04-28T06:18:18.686Z,21.70
2023-04-28T06:19:18.666Z,21.71
2023-04-28T06:20:18.680Z,21.71
2023-04-28T06:21:18.631Z,21.70
2023-04-28T06:22:18.632Z,21.70
2023-04-28T06:23:18.626Z,21.70
2023-04-28T06:24:18.916Z,21.70
2023-04-28T06:25:18.613Z,21.70
2023-04-28T06:26:18.775Z,21.69
2023-04-28T06:27:18.618Z,21.70
2023-04-28T06:28:18.666Z,21.70
2023-04-28T06:29:18.681Z,21.70
2023-04-28T06:30:18.787Z,21.71
2023-04-28T06:31:18.852Z,21.71
2023-04-28T06:32:18.862Z,21.71
2023-04-28T06:33:18.886Z,21.71
2023-04-28T06:34:19.007Z,21.72
2023-04-28T06:35:18.962Z,21.72
2023-04-28T06:36:19.021Z,21.72
2023-04-28T06:37:19.062Z,21.73
2023-04-28T06:38:19.143Z,21.72
2023-04-28T06:39:19.175Z,21.72
2023-04-28T06:40:19.216Z,21.72
2023-04-28T06:41:19.286Z,21.72
2023-04-28T06:42:19.328Z,21.72
2023-04-28T06:43:19.361Z,21.72
2023-04-28T06:44:19.498Z,21.72
2023-04-28T06:45:19.445Z,21.72
2023-04-28T06:46:19.498Z,21.72
2023-04-28T06:47:19.648Z,21.70
2023-04-28T06:48:19.615Z,21.71
2023-04-28T06:49:19.690Z,21.72
2023-04-28T06:50:19.666Z,21.71
2023-04-28T06:51:19.692Z,21.70
2023-04-28T06:52:24.812Z,21.72
2023-04-28T06:53:20.870Z,21.73
2023-04-28T06:54:19.866Z,21.74
2023-04-28T06:55:19.785Z,21.78
2023-04-28T06:56:19.844Z,21.82
2023-04-28T06:57:19.930Z,21.86
2023-04-28T06:58:20.001Z,21.88
2023-04-28T06:59:20.033Z,21.90
2023-04-28T07:00:20.179Z,21.92
2023-04-28T07:01:20.362Z,21.93
2023-04-28T07:02:20.248Z,21.96
2023-04-28T07:03:20.422Z,21.96
2023-04-28T07:04:20.644Z,22.00
2023-04-28T07:05:20.359Z,22.01
2023-04-28T07:06:20.450Z,22.03
2023-04-28T07:07:20.463Z,22.03
2023-04-28T07:08:20.541Z,22.04
2023-04-28T07:09:20.576Z,22.05
2023-04-28T07:10:20.600Z,22.07
2023-04-28T07:11:20.684Z,22.07
2023-04-28T07:12:20.720Z,22.09
2023-04-28T07:13:20.755Z,22.09
2023-04-28T07:14:20.804Z,22.11
2023-04-28T07:15:20.807Z,22.12
2023-04-28T07:16:20.888Z,22.13
2023-04-28T07:17:20.907Z,22.15
2023-04-28T07:18:21.136Z,22.16
2023-04-28T07:19:20.974Z,22.17
2023-04-28T07:20:21.370Z,22.18
2023-04-28T07:21:21.037Z,22.18
2023-04-28T07:22:21.090Z,22.19
2023-04-28T07:23:21.155Z,22.20
2023-04-28T07:24:21.151Z,22.20
2023-04-28T07:25:21.161Z,22.21
2023-04-28T07:26:21.195Z,22.21
2023-04-28T07:27:21.235Z,22.21
2023-04-28T07:28:21.256Z,22.22
2023-04-28T07:29:21.317Z,22.24
2023-04-28T07:30:28.090Z,22.24
2023-04-28T07:31:22.326Z,22.26
2023-04-28T07:32:21.357Z,22.26
2023-04-28T07:33:21.317Z,22.27
2023-04-28T07:34:21.308Z,22.27
2023-04-28T07:35:21.286Z,22.28
2023-04-28T07:36:21.273Z,22.28
2023-04-28T07:37:21.258Z,22.29
2023-04-28T07:38:21.290Z,22.30
2023-04-28T07:39:21.272Z,22.30
2023-04-28T07:40:21.256Z,22.30
2023-04-28T07:41:21.274Z,22.31
2023-04-28T07:42:21.221Z,22.32
2023-04-28T07:43:21.676Z,22.33
2023-04-28T07:44:21.216Z,22.34
2023-04-28T07:45:21.219Z,22.33
2023-04-28T07:46:21.249Z,22.35
2023-04-28T07:47:21.203Z,22.34
2023-04-28T07:48:21.669Z,22.35
2023-04-28T07:49:21.198Z,22.37
2023-04-28T07:50:21.287Z,22.37
2023-04-28T07:51:21.200Z,22.37
2023-04-28T07:52:21.157Z,22.38
2023-04-28T07:53:21.190Z,22.38
2023-04-28T07:54:21.154Z,22.38
2023-04-28T07:55:21.156Z,22.38
2023-04-28T07:56:21.143Z,22.40
2023-04-28T07:57:21.172Z,22.41
2023-04-28T07:58:21.200Z,22.40
2023-04-28T07:59:21.201Z,22.41
2023-04-28T08:00:21.255Z,22.41
2023-04-28T08:01:21.233Z,22.42
2023-04-28T08:02:21.291Z,22.42
2023-04-28T08:03:21.310Z,22.43
2023-04-28T08:04:21.690Z,22.42
2023-04-28T08:06:21.239Z,22.42
2023-04-28T08:07:21.277Z,22.44
2023-04-28T08:08:21.273Z,22.43
2023-04-28T08:09:21.280Z,22.44
2023-04-28T08:10:21.562Z,22.44
2023-04-28T08:11:21.289Z,22.45
2023-04-28T08:12:21.327Z,22.46
2023-04-28T08:13:21.313Z,22.47
2023-04-28T08:14:21.315Z,22.49
2023-04-28T08:15:21.296Z,22.49
2023-04-28T08:16:21.332Z,22.48
2023-04-28T08:17:21.393Z,22.47
2023-04-28T08:18:21.401Z,22.48
2023-04-28T08:19:21.350Z,22.49
2023-04-28T08:20:24.431Z,22.50
2023-04-28T08:21:21.356Z,22.51
2023-04-28T08:22:21.341Z,22.51
2023-04-28T08:23:21.329Z,22.51
2023-04-28T08:24:21.326Z,22.52
2023-04-28T08:25:21.333Z,22.52
2023-04-28T08:26:21.315Z,22.51
2023-04-28T08:27:21.307Z,22.52
2023-04-28T08:28:21.278Z,22.52
2023-04-28T08:29:21.288Z,22.53
2023-04-28T08:30:21.301Z,22.52
2023-04-28T08:31:21.312Z,22.51
2023-04-28T08:32:21.270Z,22.50
2023-04-28T08:33:21.270Z,22.50
2023-04-28T08:34:21.475Z,22.47
2023-04-28T08:35:21.252Z,22.46
2023-04-28T08:36:21.240Z,22.44
2023-04-28T08:37:21.233Z,22.43
2023-04-28T08:38:22.736Z,22.41
2023-04-28T08:39:21.237Z,22.40
2023-04-28T08:40:21.210Z,22.39
2023-04-28T08:41:21.197Z,22.38
2023-04-28T08:42:21.204Z,22.35
2023-04-28T08:43:21.179Z,22.33
2023-04-28T08:44:21.175Z,22.32
2023-04-28T08:45:21.173Z,22.31
2023-04-28T08:46:21.204Z,22.30
2023-04-28T08:47:21.221Z,22.28
2023-04-28T08:48:21.218Z,22.28
2023-04-28T08:49:21.155Z,22.26
2023-04-28T08:50:21.152Z,22.25
2023-04-28T08:51:21.104Z,22.24
2023-04-28T08:52:21.103Z,22.23
2023-04-28T08:53:21.184Z,22.22
2023-04-28T08:54:26.201Z,22.21
2023-04-28T08:55:22.099Z,22.21
2023-04-28T08:56:21.105Z,22.20
2023-04-28T08:57:21.074Z,22.21
2023-04-28T08:58:21.239Z,22.21
2023-04-28T08:59:21.106Z,22.20
2023-04-28T09:00:21.091Z,22.22
2023-04-28T09:01:21.087Z,22.23
2023-04-28T09:02:21.306Z,22.23
2023-04-28T09:03:21.158Z,22.24
2023-04-28T09:04:21.818Z,22.25
2023-04-28T09:05:21.258Z,22.25
2023-04-28T09:06:28.046Z,22.26
2023-04-28T09:07:21.008Z,22.25
2023-04-28T09:08:21.014Z,22.26
2023-04-28T09:09:21.017Z,22.27
2023-04-28T09:10:21.059Z,22.27
2023-04-28T09:11:20.976Z,22.27
2023-04-28T09:12:20.981Z,22.27
2023-04-28T09:13:21.064Z,22.28
2023-04-28T09:14:21.006Z,22.29
2023-04-28T09:15:20.970Z,22.29
2023-04-28T09:16:20.983Z,22.29
2023-04-28T09:17:20.959Z,22.30
2023-04-28T09:18:20.964Z,22.30
2023-04-28T09:19:20.930Z,22.29
2023-04-28T09:20:20.936Z,22.29
2023-04-28T09:21:20.903Z,22.30
2023-04-28T09:22:26.768Z,22.29
2023-04-28T09:23:21.920Z,22.29
2023-04-28T09:24:20.909Z,22.29
2023-04-28T09:25:20.896Z,22.30
2023-04-28T09:26:20.872Z,22.30
2023-04-28T09:27:20.914Z,22.30
2023-04-28T09:28:20.896Z,22.30
2023-04-28T09:29:20.875Z,22.30
2023-04-28T09:30:28.413Z,22.30
2023-04-28T09:31:20.934Z,22.30
2023-04-28T09:32:20.952Z,22.30
2023-04-28T09:33:20.894Z,22.30
2023-04-28T09:34:20.858Z,22.31
2023-04-28T09:35:20.846Z,22.31
2023-04-28T09:36:20.827Z,22.35
2023-04-28T09:37:20.875Z,22.35
2023-04-28T09:38:21.253Z,22.35
2023-04-28T09:39:20.799Z,22.35
2023-04-28T09:40:20.872Z,22.36
2023-04-28T09:41:20.845Z,22.36
2023-04-28T09:42:20.836Z,22.36
2023-04-28T09:43:21.969Z,22.36
2023-04-28T09:44:20.832Z,22.35
2023-04-28T09:45:20.811Z,22.35
2023-04-28T09:46:20.857Z,22.31
2023-04-28T09:47:20.788Z,22.31
2023-04-28T09:48:20.793Z,22.32
2023-04-28T09:49:20.745Z,22.38
2023-04-28T09:50:20.794Z,22.39
2023-04-28T09:51:20.776Z,22.40
2023-04-28T09:52:20.760Z,22.40
2023-04-28T09:53:20.763Z,22.41
2023-04-28T09:54:20.719Z,22.41
2023-04-28T09:55:20.729Z,22.40
2023-04-28T09:56:20.745Z,22.39
2023-04-28T09:57:20.774Z,22.39
2023-04-28T09:58:20.803Z,22.38
2023-04-28T09:59:20.801Z,22.37
2023-04-28T10:00:20.795Z,22.37
2023-04-28T10:01:20.874Z,22.37
2023-04-28T10:03:23.334Z,22.35
2023-04-28T10:04:20.972Z,22.34
2023-04-28T10:05:21.034Z,22.34
2023-04-28T10:06:20.855Z,22.32
2023-04-28T10:07:20.853Z,22.33
2023-04-28T10:08:20.815Z,22.32
2023-04-28T10:09:20.803Z,22.30
2023-04-28T10:10:20.806Z,22.30
2023-04-28T10:11:20.888Z,22.29
2023-04-28T10:12:20.773Z,22.28
2023-04-28T10:13:20.825Z,22.28
2023-04-28T10:14:20.822Z,22.28
2023-04-28T10:15:20.802Z,22.29
2023-04-28T10:16:20.945Z,22.29
2023-04-28T10:17:20.999Z,22.29
2023-04-28T10:18:20.780Z,22.26
2023-04-28T10:19:20.758Z,22.27
2023-04-28T10:20:20.729Z,22.29
2023-04-28T10:21:20.760Z,22.30
2023-04-28T10:22:20.737Z,22.29
2023-04-28T10:23:20.725Z,22.26
2023-04-28T10:24:20.711Z,22.28
2023-04-28T10:25:20.710Z,22.28
2023-04-28T10:26:20.761Z,22.28
2023-04-28T10:27:20.705Z,22.27
2023-04-28T10:28:20.689Z,22.28
2023-04-28T10:29:20.799Z,22.29
2023-04-28T10:30:27.282Z,22.30
2023-04-28T10:31:21.847Z,22.31
2023-04-28T10:32:20.803Z,22.32
2023-04-28T10:33:20.748Z,22.32
2023-04-28T10:34:20.746Z,22.33
2023-04-28T10:35:20.782Z,22.34
2023-04-28T10:36:26.994Z,22.34
2023-04-28T10:37:21.782Z,22.34
2023-04-28T10:38:20.770Z,22.35
2023-04-28T10:39:21.248Z,22.35
2023-04-28T10:40:20.757Z,22.35
2023-04-28T10:41:20.756Z,22.36
2023-04-28T10:42:20.744Z,22.36
2023-04-28T10:43:20.703Z,22.35
2023-04-28T10:44:20.713Z,22.35
2023-04-28T10:45:20.706Z,22.35
2023-04-28T10:46:20.713Z,22.35
2023-04-28T10:47:20.736Z,22.32
2023-04-28T10:48:20.674Z,22.32
2023-04-28T10:49:20.708Z,22.31
2023-04-28T10:50:26.484Z,22.30
2023-04-28T10:51:20.647Z,22.29
2023-04-28T10:52:20.636Z,22.29
2023-04-28T10:53:20.640Z,22.30
2023-04-28T10:54:20.659Z,22.32
2023-04-28T10:56:20.650Z,22.33
2023-04-28T10:57:20.634Z,22.35
2023-04-28T10:58:20.607Z,22.36
2023-04-28T10:59:20.621Z,22.36
2023-04-28T11:00:20.612Z,22.36
2023-04-28T11:01:20.668Z,22.35
2023-04-28T11:02:20.682Z,22.35
2023-04-28T11:03:20.669Z,22.34
2023-04-28T11:04:20.811Z,22.34
2023-04-28T11:05:20.787Z,22.32
2023-04-28T11:06:20.573Z,22.33
2023-04-28T11:07:20.609Z,22.34
2023-04-28T11:08:20.676Z,22.35
2023-04-28T11:09:20.545Z,22.34
2023-04-28T11:10:20.582Z,22.35
2023-04-28T11:11:20.618Z,22.34
2023-04-28T11:12:20.615Z,22.35
2023-04-28T11:13:20.630Z,22.33
2023-04-28T11:14:20.760Z,22.33
2023-04-28T11:15:20.717Z,22.33
2023-04-28T11:16:20.785Z,22.33
2023-04-28T11:17:20.730Z,22.33
2023-04-28T11:18:20.792Z,22.34
2023-04-28T11:19:20.826Z,22.35
2023-04-28T11:20:20.829Z,22.41
2023-04-28T11:21:20.856Z,22.41
2023-04-28T11:22:20.898Z,22.41
2023-04-28T11:23:20.936Z,22.41
2023-04-28T11:24:20.947Z,22.42
2023-04-28T11:25:20.979Z,22.42
2023-04-28T11:26:20.984Z,22.40
2023-04-28T11:27:21.026Z,22.35
2023-04-28T11:28:21.062Z,22.30
2023-04-28T11:29:21.261Z,22.25
2023-04-28T11:30:21.115Z,22.21
2023-04-28T11:31:21.222Z,22.18
2023-04-28T11:32:21.218Z,22.14
2023-04-28T11:33:21.258Z,22.13
2023-04-28T11:34:21.764Z,22.13
2023-04-28T11:35:21.361Z,22.13
2023-04-28T11:36:21.444Z,22.14
2023-04-28T11:37:21.459Z,22.14
2023-04-28T11:38:21.527Z,22.13
2023-04-28T11:39:21.747Z,22.13
2023-04-28T11:40:21.600Z,22.12
2023-04-28T11:41:21.674Z,22.10
2023-04-28T11:42:21.702Z,22.08
2023-04-28T11:43:21.745Z,22.06
2023-04-28T11:44:21.831Z,22.03
2023-04-28T11:45:21.890Z,21.88
2023-04-28T11:46:22.025Z,21.64
2023-04-28T11:47:21.970Z,21.44
2023-04-28T11:48:21.889Z,21.28
2023-04-28T11:49:22.000Z,21.21
2023-04-28T11:50:22.000Z,21.09
2023-04-28T11:51:22.001Z,20.94
2023-04-28T11:52:22.024Z,20.73
2023-04-28T11:53:22.751Z,20.59
2023-04-28T11:54:22.129Z,20.47
2023-04-28T11:55:22.116Z,20.40
2023-04-28T11:56:22.129Z,20.40
2023-04-28T11:57:22.188Z,20.44
2023-04-28T11:58:22.234Z,20.52
2023-04-28T12:00:22.378Z,20.69
2023-04-28T12:01:22.296Z,20.77
2023-04-28T12:02:22.414Z,20.86
2023-04-28T12:03:22.537Z,20.94
2023-04-28T12:04:22.562Z,21.00
2023-04-28T12:05:22.668Z,21.07
2023-04-28T12:06:22.501Z,21.12
2023-04-28T12:07:22.505Z,21.18
2023-04-28T12:08:22.520Z,21.24
2023-04-28T12:09:22.523Z,21.29
2023-04-28T12:10:22.509Z,21.34
2023-04-28T12:11:22.805Z,21.38
2023-04-28T12:12:30.500Z,21.43
2023-04-28T12:13:23.489Z,21.46
2023-04-28T12:14:22.511Z,21.50
2023-04-28T12:15:23.020Z,21.54
2023-04-28T12:16:22.516Z,21.58
2023-04-28T12:17:22.540Z,21.61
2023-04-28T12:18:22.459Z,21.63
2023-04-28T12:19:22.511Z,21.65
2023-04-28T12:20:22.434Z,21.68
2023-04-28T12:21:22.416Z,21.70
2023-04-28T12:22:22.452Z,21.73
2023-04-28T12:23:22.525Z,21.73
2023-04-28T12:24:22.642Z,21.74
2023-04-28T12:25:22.616Z,21.75
2023-04-28T12:26:22.744Z,21.76
2023-04-28T12:27:22.729Z,21.77
2023-04-28T12:28:22.764Z,21.77
2023-04-28T12:29:22.845Z,21.78
2023-04-28T12:30:22.893Z,21.79
2023-04-28T12:31:22.910Z,21.79
2023-04-28T12:32:22.972Z,21.80
2023-04-28T12:33:23.022Z,21.80
2023-04-28T12:34:23.073Z,21.80
2023-04-28T12:35:23.108Z,21.80
2023-04-28T12:36:23.178Z,21.80
2023-04-28T12:37:23.249Z,21.79
2023-04-28T12:38:23.303Z,21.81
2023-04-28T12:39:23.339Z,21.81
2023-04-28T12:40:23.462Z,21.80
2023-04-28T12:41:23.502Z,21.81
2023-04-28T12:42:23.566Z,21.81
2023-04-28T12:43:23.658Z,21.81
2023-04-28T12:44:23.693Z,21.81
2023-04-28T12:45:23.740Z,21.83
2023-04-28T12:46:23.909Z,21.83
2023-04-28T12:47:23.972Z,21.82
2023-04-28T12:48:24.076Z,21.82
2023-04-28T12:49:23.954Z,21.82
2023-04-28T12:50:24.009Z,21.82
2023-04-28T12:51:24.083Z,21.82
2023-04-28T12:52:24.159Z,21.82
2023-04-28T12:53:24.228Z,21.82
2023-04-28T12:54:24.292Z,21.82
2023-04-28T12:55:24.319Z,21.82
2023-04-28T12:56:24.422Z,21.82
2023-04-28T12:57:24.474Z,21.83